sensor_id;sensor_type;location;lat;lon;timestamp;P1;durP1;ratioP1;P2;durP2;ratioP2
19585;SDS011;9939;49.246;9.106;2023-12-28T00:02:22;25.80;;;12.77;;
19585;SDS011;9939;49.246;9.106;2023-12-28T00:04:49;21.03;;;11.90;;
19585;SDS011;9939;49.246;9.106;2023-12-28T00:07:16;16.80;;;10.20;;
19585;SDS011;9939;49.246;9.106;2023-12-28T00:09:43;17.27;;;10.13;;
19585;SDS011;9939;49.246;9.106;2023-12-28T00:12:10;18.93;;;9.07;;
19585;SDS011;9939;49.246;9.106;2023-12-28T00:14:37;20.23;;;11.00;;
19585;SDS011;9939;49.246;9.106;2023-12-28T00:17:05;16.90;;;10.27;;
19585;SDS011;9939;49.246;9.106;2023-12-28T00:19:32;20.13;;;11.27;;
19585;SDS011;9939;49.246;9.106;2023-12-28T00:21:59;19.27;;;10.63;;
19585;SDS011;9939;49.246;9.106;2023-12-28T00:24:26;23.63;;;11.27;;
19585;SDS011;9939;49.246;9.106;2023-12-28T00:26:53;18.43;;;10.20;;
19585;SDS011;9939;49.246;9.106;2023-12-28T00:29:20;18.93;;;11.17;;
19585;SDS011;9939;49.246;9.106;2023-12-28T00:31:47;15.13;;;9.63;;
19585;SDS011;9939;49.246;9.106;2023-12-28T00:34:15;17.03;;;10.60;;
19585;SDS011;9939;49.246;9.106;2023-12-28T00:36:43;17.20;;;9.83;;
19585;SDS011;9939;49.246;9.106;2023-12-28T00:39:10;17.83;;;10.63;;
19585;SDS011;9939;49.246;9.106;2023-12-28T00:41:37;17.53;;;9.73;;
19585;SDS011;9939;49.246;9.106;2023-12-28T00:44:04;18.07;;;9.80;;
19585;SDS011;9939;49.246;9.106;2023-12-28T00:46:36;16.67;;;9.50;;
19585;SDS011;9939;49.246;9.106;2023-12-28T00:49:04;18.10;;;10.93;;
19585;SDS011;9939;49.246;9.106;2023-12-28T00:51:33;16.87;;;9.37;;
19585;SDS011;9939;49.246;9.106;2023-12-28T00:54:00;16.83;;;9.83;;
19585;SDS011;9939;49.246;9.106;2023-12-28T00:56:27;17.77;;;10.97;;
19585;SDS011;9939;49.246;9.106;2023-12-28T00:58:54;16.97;;;9.40;;
19585;SDS011;9939;49.246;9.106;2023-12-28T01:01:21;13.80;;;8.57;;
19585;SDS011;9939;49.246;9.106;2023-12-28T01:03:49;15.57;;;8.33;;
19585;SDS011;9939;49.246;9.106;2023-12-28T01:06:16;18.00;;;9.20;;
19585;SDS011;9939;49.246;9.106;2023-12-28T01:08:43;13.20;;;8.13;;
19585;SDS011;9939;49.246;9.106;2023-12-28T01:11:11;15.90;;;8.83;;
19585;SDS011;9939;49.246;9.106;2023-12-28T01:13:39;17.17;;;8.63;;
19585;SDS011;9939;49.246;9.106;2023-12-28T01:16:08;13.73;;;8.43;;
19585;SDS011;9939;49.246;9.106;2023-12-28T01:18:35;16.80;;;9.00;;
19585;SDS011;9939;49.246;9.106;2023-12-28T01:21:02;14.80;;;8.17;;
19585;SDS011;9939;49.246;9.106;2023-12-28T01:23:30;16.07;;;8.53;;
19585;SDS011;9939;49.246;9.106;2023-12-28T01:25:59;18.00;;;8.50;;
19585;SDS011;9939;49.246;9.106;2023-12-28T01:28:26;17.23;;;9.47;;
19585;SDS011;9939;49.246;9.106;2023-12-28T01:30:53;14.60;;;8.57;;
19585;SDS011;9939;49.246;9.106;2023-12-28T01:33:20;14.57;;;8.23;;
19585;SDS011;9939;49.246;9.106;2023-12-28T01:35:48;14.43;;;8.13;;
19585;SDS011;9939;49.246;9.106;2023-12-28T01:38:15;12.90;;;7.73;;
19585;SDS011;9939;49.246;9.106;2023-12-28T01:40:45;13.80;;;8.30;;
19585;SDS011;9939;49.246;9.106;2023-12-28T01:43:13;14.17;;;8.47;;
19585;SDS011;9939;49.246;9.106;2023-12-28T01:45:40;15.13;;;8.70;;
19585;SDS011;9939;49.246;9.106;2023-12-28T01:48:08;14.03;;;8.13;;
19585;SDS011;9939;49.246;9.106;2023-12-28T01:50:36;15.07;;;8.73;;
19585;SDS011;9939;49.246;9.106;2023-12-28T01:53:03;17.67;;;8.67;;
19585;SDS011;9939;49.246;9.106;2023-12-28T01:55:30;14.47;;;9.13;;
19585;SDS011;9939;49.246;9.106;2023-12-28T01:57:59;15.03;;;8.60;;
19585;SDS011;9939;49.246;9.106;2023-12-28T02:00:27;17.13;;;8.60;;
19585;SDS011;9939;49.246;9.106;2023-12-28T02:02:55;18.53;;;10.13;;
19585;SDS011;9939;49.246;9.106;2023-12-28T02:05:23;16.67;;;8.70;;
19585;SDS011;9939;49.246;9.106;2023-12-28T02:07:50;17.43;;;8.57;;
19585;SDS011;9939;49.246;9.106;2023-12-28T02:10:17;15.50;;;8.50;;
19585;SDS011;9939;49.246;9.106;2023-12-28T02:12:45;14.90;;;8.73;;
19585;SDS011;9939;49.246;9.106;2023-12-28T02:15:14;15.13;;;8.77;;
19585;SDS011;9939;49.246;9.106;2023-12-28T02:17:47;16.20;;;8.20;;
19585;SDS011;9939;49.246;9.106;2023-12-28T02:20:29;14.43;;;8.47;;
19585;SDS011;9939;49.246;9.106;2023-12-28T02:22:57;15.27;;;7.97;;
19585;SDS011;9939;49.246;9.106;2023-12-28T02:25:25;13.37;;;7.97;;
19585;SDS011;9939;49.246;9.106;2023-12-28T02:27:52;18.93;;;8.67;;
19585;SDS011;9939;49.246;9.106;2023-12-28T02:30:20;16.47;;;8.07;;
19585;SDS011;9939;49.246;9.106;2023-12-28T02:35:33;17.63;;;9.13;;
19585;SDS011;9939;49.246;9.106;2023-12-28T02:38:08;21.40;;;10.80;;
19585;SDS011;9939;49.246;9.106;2023-12-28T02:40:37;18.47;;;9.47;;
19585;SDS011;9939;49.246;9.106;2023-12-28T02:43:08;15.60;;;9.40;;
19585;SDS011;9939;49.246;9.106;2023-12-28T02:45:37;15.43;;;9.07;;
19585;SDS011;9939;49.246;9.106;2023-12-28T02:48:06;17.67;;;9.40;;
19585;SDS011;9939;49.246;9.106;2023-12-28T02:50:34;14.83;;;9.30;;
19585;SDS011;9939;49.246;9.106;2023-12-28T02:53:02;14.53;;;9.07;;
19585;SDS011;9939;49.246;9.106;2023-12-28T02:55:29;17.37;;;9.20;;
19585;SDS011;9939;49.246;9.106;2023-12-28T02:57:56;14.37;;;8.77;;
19585;SDS011;9939;49.246;9.106;2023-12-28T03:00:28;15.90;;;9.03;;
19585;SDS011;9939;49.246;9.106;2023-12-28T03:02:56;16.87;;;9.03;;
19585;SDS011;9939;49.246;9.106;2023-12-28T03:05:23;19.23;;;10.00;;
19585;SDS011;9939;49.246;9.106;2023-12-28T03:07:50;15.77;;;8.67;;
19585;SDS011;9939;49.246;9.106;2023-12-28T03:10:17;16.00;;;8.87;;
19585;SDS011;9939;49.246;9.106;2023-12-28T03:12:45;14.90;;;9.10;;
19585;SDS011;9939;49.246;9.106;2023-12-28T03:15:12;15.33;;;8.57;;
19585;SDS011;9939;49.246;9.106;2023-12-28T03:17:39;15.67;;;8.77;;
19585;SDS011;9939;49.246;9.106;2023-12-28T03:20:09;15.03;;;8.33;;
19585;SDS011;9939;49.246;9.106;2023-12-28T03:22:36;15.20;;;8.80;;
19585;SDS011;9939;49.246;9.106;2023-12-28T03:25:04;14.07;;;8.70;;
19585;SDS011;9939;49.246;9.106;2023-12-28T03:27:31;14.60;;;8.37;;
19585;SDS011;9939;49.246;9.106;2023-12-28T03:29:58;15.60;;;7.97;;
19585;SDS011;9939;49.246;9.106;2023-12-28T03:32:26;14.77;;;7.73;;
19585;SDS011;9939;49.246;9.106;2023-12-28T03:34:53;13.93;;;8.27;;
19585;SDS011;9939;49.246;9.106;2023-12-28T03:37:20;16.07;;;8.13;;
19585;SDS011;9939;49.246;9.106;2023-12-28T03:39:47;12.13;;;7.90;;
19585;SDS011;9939;49.246;9.106;2023-12-28T03:42:14;13.03;;;7.83;;
19585;SDS011;9939;49.246;9.106;2023-12-28T03:44:41;14.57;;;8.20;;
19585;SDS011;9939;49.246;9.106;2023-12-28T03:47:08;12.37;;;7.47;;
19585;SDS011;9939;49.246;9.106;2023-12-28T03:49:36;12.97;;;7.77;;
19585;SDS011;9939;49.246;9.106;2023-12-28T03:52:03;12.53;;;6.90;;
19585;SDS011;9939;49.246;9.106;2023-12-28T03:54:31;11.93;;;6.20;;
19585;SDS011;9939;49.246;9.106;2023-12-28T03:56:58;11.07;;;6.20;;
19585;SDS011;9939;49.246;9.106;2023-12-28T03:59:25;11.20;;;6.23;;
19585;SDS011;9939;49.246;9.106;2023-12-28T04:01:52;10.77;;;5.80;;
19585;SDS011;9939;49.246;9.106;2023-12-28T04:04:20;12.20;;;6.07;;
19585;SDS011;9939;49.246;9.106;2023-12-28T04:06:48;9.00;;;5.30;;
19585;SDS011;9939;49.246;9.106;2023-12-28T04:09:15;9.70;;;5.63;;
19585;SDS011;9939;49.246;9.106;2023-12-28T04:11:45;9.27;;;5.30;;
19585;SDS011;9939;49.246;9.106;2023-12-28T04:14:12;6.37;;;3.77;;
19585;SDS011;9939;49.246;9.106;2023-12-28T04:16:40;8.10;;;3.53;;
19585;SDS011;9939;49.246;9.106;2023-12-28T04:19:07;6.60;;;3.33;;
19585;SDS011;9939;49.246;9.106;2023-12-28T04:21:34;5.40;;;3.20;;
19585;SDS011;9939;49.246;9.106;2023-12-28T04:24:03;6.23;;;2.50;;
19585;SDS011;9939;49.246;9.106;2023-12-28T04:26:30;4.57;;;2.10;;
19585;SDS011;9939;49.246;9.106;2023-12-28T04:28:57;5.90;;;2.30;;
19585;SDS011;9939;49.246;9.106;2023-12-28T04:31:24;5.13;;;2.17;;
19585;SDS011;9939;49.246;9.106;2023-12-28T04:33:52;3.93;;;1.60;;
19585;SDS011;9939;49.246;9.106;2023-12-28T04:36:19;5.07;;;1.97;;
19585;SDS011;9939;49.246;9.106;2023-12-28T04:38:47;3.40;;;1.83;;
19585;SDS011;9939;49.246;9.106;2023-12-28T04:41:14;4.47;;;2.00;;
19585;SDS011;9939;49.246;9.106;2023-12-28T04:43:41;3.23;;;1.63;;
19585;SDS011;9939;49.246;9.106;2023-12-28T04:46:08;4.67;;;2.10;;
19585;SDS011;9939;49.246;9.106;2023-12-28T04:48:35;3.90;;;1.90;;
19585;SDS011;9939;49.246;9.106;2023-12-28T04:51:04;3.50;;;1.50;;
19585;SDS011;9939;49.246;9.106;2023-12-28T04:53:31;2.60;;;1.40;;
19585;SDS011;9939;49.246;9.106;2023-12-28T04:56:00;5.07;;;1.70;;
19585;SDS011;9939;49.246;9.106;2023-12-28T04:58:27;2.37;;;1.53;;
19585;SDS011;9939;49.246;9.106;2023-12-28T05:00:54;5.10;;;1.70;;
19585;SDS011;9939;49.246;9.106;2023-12-28T05:03:21;4.63;;;1.73;;
19585;SDS011;9939;49.246;9.106;2023-12-28T05:05:49;4.63;;;1.80;;
19585;SDS011;9939;49.246;9.106;2023-12-28T05:08:16;4.03;;;1.83;;
19585;SDS011;9939;49.246;9.106;2023-12-28T05:10:43;3.53;;;1.40;;
19585;SDS011;9939;49.246;9.106;2023-12-28T05:13:10;5.53;;;2.00;;
19585;SDS011;9939;49.246;9.106;2023-12-28T05:15:37;5.20;;;1.83;;
19585;SDS011;9939;49.246;9.106;2023-12-28T05:18:04;3.37;;;1.70;;
19585;SDS011;9939;49.246;9.106;2023-12-28T05:20:34;6.70;;;1.80;;
19585;SDS011;9939;49.246;9.106;2023-12-28T05:23:01;5.50;;;1.83;;
19585;SDS011;9939;49.246;9.106;2023-12-28T05:25:28;3.30;;;1.60;;
19585;SDS011;9939;49.246;9.106;2023-12-28T05:27:55;6.23;;;1.80;;
19585;SDS011;9939;49.246;9.106;2023-12-28T05:30:23;3.70;;;1.60;;
19585;SDS011;9939;49.246;9.106;2023-12-28T05:32:50;3.50;;;1.73;;
19585;SDS011;9939;49.246;9.106;2023-12-28T05:35:17;2.93;;;1.63;;
19585;SDS011;9939;49.246;9.106;2023-12-28T05:37:44;4.73;;;1.60;;
19585;SDS011;9939;49.246;9.106;2023-12-28T05:40:11;2.70;;;1.40;;
19585;SDS011;9939;49.246;9.106;2023-12-28T05:42:39;4.53;;;1.90;;
19585;SDS011;9939;49.246;9.106;2023-12-28T05:45:06;3.70;;;1.80;;
19585;SDS011;9939;49.246;9.106;2023-12-28T05:47:33;3.13;;;1.87;;
19585;SDS011;9939;49.246;9.106;2023-12-28T05:50:00;3.57;;;1.87;;
19585;SDS011;9939;49.246;9.106;2023-12-28T05:52:29;5.83;;;1.77;;
19585;SDS011;9939;49.246;9.106;2023-12-28T05:54:57;3.73;;;1.70;;
19585;SDS011;9939;49.246;9.106;2023-12-28T05:57:24;6.23;;;1.80;;
19585;SDS011;9939;49.246;9.106;2023-12-28T05:59:53;6.10;;;1.80;;
19585;SDS011;9939;49.246;9.106;2023-12-28T06:02:20;3.90;;;1.70;;
19585;SDS011;9939;49.246;9.106;2023-12-28T06:04:47;4.13;;;1.83;;
19585;SDS011;9939;49.246;9.106;2023-12-28T06:07:14;4.90;;;1.93;;
19585;SDS011;9939;49.246;9.106;2023-12-28T06:09:42;4.60;;;1.60;;
19585;SDS011;9939;49.246;9.106;2023-12-28T06:12:09;5.83;;;1.93;;
19585;SDS011;9939;49.246;9.106;2023-12-28T06:14:36;4.53;;;1.50;;
19585;SDS011;9939;49.246;9.106;2023-12-28T06:17:03;3.87;;;1.80;;
19585;SDS011;9939;49.246;9.106;2023-12-28T06:19:30;4.37;;;1.77;;
19585;SDS011;9939;49.246;9.106;2023-12-28T06:21:58;3.77;;;1.60;;
19585;SDS011;9939;49.246;9.106;2023-12-28T06:24:25;3.73;;;1.70;;
19585;SDS011;9939;49.246;9.106;2023-12-28T06:26:52;3.93;;;1.80;;
19585;SDS011;9939;49.246;9.106;2023-12-28T06:29:19;3.27;;;1.70;;
19585;SDS011;9939;49.246;9.106;2023-12-28T06:31:46;5.10;;;1.80;;
19585;SDS011;9939;49.246;9.106;2023-12-28T06:34:14;3.63;;;1.97;;
19585;SDS011;9939;49.246;9.106;2023-12-28T06:36:41;3.43;;;1.87;;
19585;SDS011;9939;49.246;9.106;2023-12-28T06:39:10;3.87;;;1.97;;
19585;SDS011;9939;49.246;9.106;2023-12-28T06:41:37;3.93;;;1.80;;
19585;SDS011;9939;49.246;9.106;2023-12-28T06:44:04;3.30;;;1.77;;
19585;SDS011;9939;49.246;9.106;2023-12-28T06:46:31;5.13;;;2.10;;
19585;SDS011;9939;49.246;9.106;2023-12-28T06:48:58;3.93;;;1.90;;
19585;SDS011;9939;49.246;9.106;2023-12-28T06:51:26;3.63;;;2.07;;
19585;SDS011;9939;49.246;9.106;2023-12-28T06:53:53;4.33;;;2.23;;
19585;SDS011;9939;49.246;9.106;2023-12-28T06:56:20;4.27;;;1.93;;
19585;SDS011;9939;49.246;9.106;2023-12-28T06:58:47;7.73;;;2.63;;
19585;SDS011;9939;49.246;9.106;2023-12-28T07:01:14;6.10;;;2.37;;
19585;SDS011;9939;49.246;9.106;2023-12-28T07:03:42;7.43;;;2.33;;
19585;SDS011;9939;49.246;9.106;2023-12-28T07:06:09;8.13;;;2.60;;
19585;SDS011;9939;49.246;9.106;2023-12-28T07:08:36;4.77;;;2.57;;
19585;SDS011;9939;49.246;9.106;2023-12-28T07:11:03;4.90;;;2.23;;
19585;SDS011;9939;49.246;9.106;2023-12-28T07:13:31;5.00;;;2.37;;
19585;SDS011;9939;49.246;9.106;2023-12-28T07:15:59;5.83;;;2.57;;
19585;SDS011;9939;49.246;9.106;2023-12-28T07:18:27;6.90;;;2.93;;
19585;SDS011;9939;49.246;9.106;2023-12-28T07:20:55;7.00;;;3.20;;
19585;SDS011;9939;49.246;9.106;2023-12-28T07:23:23;6.93;;;3.00;;
19585;SDS011;9939;49.246;9.106;2023-12-28T07:25:50;4.80;;;2.70;;
19585;SDS011;9939;49.246;9.106;2023-12-28T07:28:17;6.50;;;3.27;;
19585;SDS011;9939;49.246;9.106;2023-12-28T07:30:44;5.97;;;3.20;;
19585;SDS011;9939;49.246;9.106;2023-12-28T07:33:11;7.33;;;3.03;;
19585;SDS011;9939;49.246;9.106;2023-12-28T07:35:39;6.80;;;3.43;;
19585;SDS011;9939;49.246;9.106;2023-12-28T07:38:06;8.63;;;3.40;;
19585;SDS011;9939;49.246;9.106;2023-12-28T07:40:33;8.90;;;3.40;;
19585;SDS011;9939;49.246;9.106;2023-12-28T07:43:00;8.20;;;3.70;;
19585;SDS011;9939;49.246;9.106;2023-12-28T07:45:28;8.70;;;3.20;;
19585;SDS011;9939;49.246;9.106;2023-12-28T07:47:55;11.23;;;3.70;;
19585;SDS011;9939;49.246;9.106;2023-12-28T07:50:24;8.93;;;4.30;;
19585;SDS011;9939;49.246;9.106;2023-12-28T07:52:51;6.50;;;3.87;;
19585;SDS011;9939;49.246;9.106;2023-12-28T07:55:18;9.30;;;4.17;;
19585;SDS011;9939;49.246;9.106;2023-12-28T07:57:46;7.70;;;3.77;;
19585;SDS011;9939;49.246;9.106;2023-12-28T08:00:13;11.07;;;4.30;;
19585;SDS011;9939;49.246;9.106;2023-12-28T08:02:41;9.77;;;3.63;;
19585;SDS011;9939;49.246;9.106;2023-12-28T08:05:08;8.33;;;4.00;;
19585;SDS011;9939;49.246;9.106;2023-12-28T08:07:36;13.00;;;4.47;;
19585;SDS011;9939;49.246;9.106;2023-12-28T08:10:03;9.30;;;4.20;;
19585;SDS011;9939;49.246;9.106;2023-12-28T08:12:30;7.67;;;4.00;;
19585;SDS011;9939;49.246;9.106;2023-12-28T08:14:58;9.27;;;4.63;;
19585;SDS011;9939;49.246;9.106;2023-12-28T08:17:26;7.80;;;4.17;;
19585;SDS011;9939;49.246;9.106;2023-12-28T08:19:53;10.37;;;4.60;;
19585;SDS011;9939;49.246;9.106;2023-12-28T08:22:22;11.17;;;4.20;;
19585;SDS011;9939;49.246;9.106;2023-12-28T08:24:49;7.03;;;3.93;;
19585;SDS011;9939;49.246;9.106;2023-12-28T08:27:16;7.67;;;4.23;;
19585;SDS011;9939;49.246;9.106;2023-12-28T08:29:43;11.23;;;4.67;;
19585;SDS011;9939;49.246;9.106;2023-12-28T08:32:12;8.37;;;4.70;;
19585;SDS011;9939;49.246;9.106;2023-12-28T08:34:39;9.43;;;3.90;;
19585;SDS011;9939;49.246;9.106;2023-12-28T08:37:06;6.97;;;3.43;;
19585;SDS011;9939;49.246;9.106;2023-12-28T08:39:33;7.23;;;3.83;;
19585;SDS011;9939;49.246;9.106;2023-12-28T08:42:01;7.93;;;3.50;;
19585;SDS011;9939;49.246;9.106;2023-12-28T08:44:28;8.13;;;3.90;;
19585;SDS011;9939;49.246;9.106;2023-12-28T08:46:55;9.93;;;3.90;;
19585;SDS011;9939;49.246;9.106;2023-12-28T08:49:22;8.03;;;3.33;;
19585;SDS011;9939;49.246;9.106;2023-12-28T08:51:50;5.80;;;3.47;;
19585;SDS011;9939;49.246;9.106;2023-12-28T08:54:17;8.50;;;3.40;;
19585;SDS011;9939;49.246;9.106;2023-12-28T08:56:45;8.57;;;3.57;;
19585;SDS011;9939;49.246;9.106;2023-12-28T08:59:16;7.87;;;3.27;;
19585;SDS011;9939;49.246;9.106;2023-12-28T09:01:44;11.50;;;3.83;;
19585;SDS011;9939;49.246;9.106;2023-12-28T09:04:11;7.53;;;3.93;;
19585;SDS011;9939;49.246;9.106;2023-12-28T09:06:40;8.00;;;4.13;;
19585;SDS011;9939;49.246;9.106;2023-12-28T09:09:08;5.87;;;3.27;;
19585;SDS011;9939;49.246;9.106;2023-12-28T09:11:35;8.17;;;3.20;;
19585;SDS011;9939;49.246;9.106;2023-12-28T09:14:03;11.10;;;3.60;;
19585;SDS011;9939;49.246;9.106;2023-12-28T09:16:30;6.60;;;3.60;;
19585;SDS011;9939;49.246;9.106;2023-12-28T09:18:57;9.90;;;3.47;;
19585;SDS011;9939;49.246;9.106;2023-12-28T09:21:24;8.07;;;3.40;;
19585;SDS011;9939;49.246;9.106;2023-12-28T09:23:52;5.83;;;2.97;;
19585;SDS011;9939;49.246;9.106;2023-12-28T09:26:19;8.07;;;3.57;;
19585;SDS011;9939;49.246;9.106;2023-12-28T09:28:46;5.50;;;3.37;;
19585;SDS011;9939;49.246;9.106;2023-12-28T09:31:14;7.67;;;3.67;;
19585;SDS011;9939;49.246;9.106;2023-12-28T09:33:41;8.93;;;3.67;;
19585;SDS011;9939;49.246;9.106;2023-12-28T09:36:10;7.07;;;3.10;;
19585;SDS011;9939;49.246;9.106;2023-12-28T09:38:39;13.67;;;3.60;;
19585;SDS011;9939;49.246;9.106;2023-12-28T09:41:14;8.30;;;3.73;;
19585;SDS011;9939;49.246;9.106;2023-12-28T09:43:50;6.20;;;3.20;;
19585;SDS011;9939;49.246;9.106;2023-12-28T09:46:27;9.43;;;3.70;;
19585;SDS011;9939;49.246;9.106;2023-12-28T09:48:54;9.83;;;3.97;;
19585;SDS011;9939;49.246;9.106;2023-12-28T09:51:23;7.27;;;3.77;;
19585;SDS011;9939;49.246;9.106;2023-12-28T09:53:50;6.47;;;3.70;;
19585;SDS011;9939;49.246;9.106;2023-12-28T09:56:17;7.83;;;4.03;;
19585;SDS011;9939;49.246;9.106;2023-12-28T09:58:44;8.00;;;4.40;;
19585;SDS011;9939;49.246;9.106;2023-12-28T10:01:15;6.40;;;3.60;;
19585;SDS011;9939;49.246;9.106;2023-12-28T10:03:45;8.27;;;4.53;;
19585;SDS011;9939;49.246;9.106;2023-12-28T10:06:16;9.97;;;4.47;;
19585;SDS011;9939;49.246;9.106;2023-12-28T10:08:47;7.10;;;4.07;;
19585;SDS011;9939;49.246;9.106;2023-12-28T10:11:15;8.43;;;4.13;;
19585;SDS011;9939;49.246;9.106;2023-12-28T10:13:44;8.13;;;3.73;;
19585;SDS011;9939;49.246;9.106;2023-12-28T10:16:12;8.53;;;3.80;;
19585;SDS011;9939;49.246;9.106;2023-12-28T10:18:42;10.37;;;4.37;;
19585;SDS011;9939;49.246;9.106;2023-12-28T10:21:11;7.23;;;3.83;;
19585;SDS011;9939;49.246;9.106;2023-12-28T10:23:38;6.80;;;3.33;;
19585;SDS011;9939;49.246;9.106;2023-12-28T10:26:05;9.33;;;4.20;;
19585;SDS011;9939;49.246;9.106;2023-12-28T10:28:34;8.17;;;3.23;;
19585;SDS011;9939;49.246;9.106;2023-12-28T10:31:01;6.77;;;3.30;;
19585;SDS011;9939;49.246;9.106;2023-12-28T10:33:33;6.07;;;3.10;;
19585;SDS011;9939;49.246;9.106;2023-12-28T10:36:08;7.50;;;3.40;;
19585;SDS011;9939;49.246;9.106;2023-12-28T10:38:37;6.93;;;3.23;;
19585;SDS011;9939;49.246;9.106;2023-12-28T10:41:06;6.50;;;3.50;;
19585;SDS011;9939;49.246;9.106;2023-12-28T10:43:36;6.63;;;2.93;;
19585;SDS011;9939;49.246;9.106;2023-12-28T10:46:09;6.93;;;3.37;;
19585;SDS011;9939;49.246;9.106;2023-12-28T10:48:37;7.20;;;3.10;;
19585;SDS011;9939;49.246;9.106;2023-12-28T10:51:08;5.97;;;3.07;;
19585;SDS011;9939;49.246;9.106;2023-12-28T10:53:38;7.00;;;2.70;;
19585;SDS011;9939;49.246;9.106;2023-12-28T10:56:35;5.63;;;2.90;;
19585;SDS011;9939;49.246;9.106;2023-12-28T11:01:54;6.50;;;3.60;;
19585;SDS011;9939;49.246;9.106;2023-12-28T11:04:23;6.37;;;3.23;;
19585;SDS011;9939;49.246;9.106;2023-12-28T11:06:52;6.57;;;3.30;;
19585;SDS011;9939;49.246;9.106;2023-12-28T11:09:22;5.27;;;3.33;;
19585;SDS011;9939;49.246;9.106;2023-12-28T11:11:53;7.57;;;3.63;;
19585;SDS011;9939;49.246;9.106;2023-12-28T11:14:21;6.80;;;3.30;;
19585;SDS011;9939;49.246;9.106;2023-12-28T11:16:49;6.47;;;3.37;;
19585;SDS011;9939;49.246;9.106;2023-12-28T11:19:18;7.90;;;3.33;;
19585;SDS011;9939;49.246;9.106;2023-12-28T11:21:48;6.63;;;3.47;;
19585;SDS011;9939;49.246;9.106;2023-12-28T11:24:16;8.93;;;3.20;;
19585;SDS011;9939;49.246;9.106;2023-12-28T11:26:44;9.20;;;3.60;;
19585;SDS011;9939;49.246;9.106;2023-12-28T11:29:18;7.53;;;3.00;;
19585;SDS011;9939;49.246;9.106;2023-12-28T11:31:55;8.23;;;3.10;;
19585;SDS011;9939;49.246;9.106;2023-12-28T11:34:25;8.77;;;3.37;;
19585;SDS011;9939;49.246;9.106;2023-12-28T11:36:54;9.43;;;3.03;;
19585;SDS011;9939;49.246;9.106;2023-12-28T11:44:32;6.87;;;3.27;;
19585;SDS011;9939;49.246;9.106;2023-12-28T11:47:12;5.57;;;3.20;;
19585;SDS011;9939;49.246;9.106;2023-12-28T11:49:43;5.37;;;3.10;;
19585;SDS011;9939;49.246;9.106;2023-12-28T11:52:27;9.37;;;3.40;;
19585;SDS011;9939;49.246;9.106;2023-12-28T11:54:55;6.90;;;3.30;;
19585;SDS011;9939;49.246;9.106;2023-12-28T11:57:23;8.10;;;3.10;;
19585;SDS011;9939;49.246;9.106;2023-12-28T11:59:56;7.97;;;3.07;;
19585;SDS011;9939;49.246;9.106;2023-12-28T12:02:25;6.73;;;3.37;;
19585;SDS011;9939;49.246;9.106;2023-12-28T12:04:53;5.63;;;3.13;;
19585;SDS011;9939;49.246;9.106;2023-12-28T12:07:22;8.13;;;2.80;;
19585;SDS011;9939;49.246;9.106;2023-12-28T12:09:55;7.70;;;3.33;;
19585;SDS011;9939;49.246;9.106;2023-12-28T12:12:23;6.27;;;3.50;;
19585;SDS011;9939;49.246;9.106;2023-12-28T12:14:51;5.90;;;3.10;;
19585;SDS011;9939;49.246;9.106;2023-12-28T12:17:18;6.07;;;3.20;;
19585;SDS011;9939;49.246;9.106;2023-12-28T12:19:46;6.47;;;3.40;;
19585;SDS011;9939;49.246;9.106;2023-12-28T12:22:16;6.53;;;3.30;;
19585;SDS011;9939;49.246;9.106;2023-12-28T12:24:44;7.97;;;3.10;;
19585;SDS011;9939;49.246;9.106;2023-12-28T12:27:14;6.47;;;3.13;;
19585;SDS011;9939;49.246;9.106;2023-12-28T12:29:41;5.20;;;2.93;;
19585;SDS011;9939;49.246;9.106;2023-12-28T12:32:09;5.30;;;2.70;;
19585;SDS011;9939;49.246;9.106;2023-12-28T12:34:37;7.10;;;3.23;;
19585;SDS011;9939;49.246;9.106;2023-12-28T12:37:06;6.37;;;3.10;;
19585;SDS011;9939;49.246;9.106;2023-12-28T12:39:33;6.37;;;3.20;;
19585;SDS011;9939;49.246;9.106;2023-12-28T12:42:01;5.83;;;3.00;;
19585;SDS011;9939;49.246;9.106;2023-12-28T12:44:29;7.77;;;3.10;;
19585;SDS011;9939;49.246;9.106;2023-12-28T12:46:56;6.83;;;2.87;;
19585;SDS011;9939;49.246;9.106;2023-12-28T12:49:25;6.10;;;3.43;;
19585;SDS011;9939;49.246;9.106;2023-12-28T12:51:53;5.67;;;3.60;;
19585;SDS011;9939;49.246;9.106;2023-12-28T12:54:21;6.70;;;3.50;;
19585;SDS011;9939;49.246;9.106;2023-12-28T12:56:51;5.93;;;3.33;;
19585;SDS011;9939;49.246;9.106;2023-12-28T12:59:19;6.67;;;3.03;;
19585;SDS011;9939;49.246;9.106;2023-12-28T13:01:46;6.10;;;3.00;;
19585;SDS011;9939;49.246;9.106;2023-12-28T13:04:18;6.10;;;3.20;;
19585;SDS011;9939;49.246;9.106;2023-12-28T13:06:45;5.10;;;2.93;;
19585;SDS011;9939;49.246;9.106;2023-12-28T13:09:12;4.53;;;2.77;;
19585;SDS011;9939;49.246;9.106;2023-12-28T13:11:40;6.60;;;3.23;;
19585;SDS011;9939;49.246;9.106;2023-12-28T13:14:07;6.33;;;2.57;;
19585;SDS011;9939;49.246;9.106;2023-12-28T13:16:34;5.70;;;3.20;;
19585;SDS011;9939;49.246;9.106;2023-12-28T13:19:01;7.63;;;3.40;;
19585;SDS011;9939;49.246;9.106;2023-12-28T13:21:28;7.67;;;3.83;;
19585;SDS011;9939;49.246;9.106;2023-12-28T13:23:56;7.97;;;3.60;;
19585;SDS011;9939;49.246;9.106;2023-12-28T13:26:26;8.03;;;3.37;;
19585;SDS011;9939;49.246;9.106;2023-12-28T13:28:53;8.67;;;3.70;;
19585;SDS011;9939;49.246;9.106;2023-12-28T13:31:20;6.83;;;3.50;;
19585;SDS011;9939;49.246;9.106;2023-12-28T13:33:47;7.63;;;3.87;;
19585;SDS011;9939;49.246;9.106;2023-12-28T13:36:14;6.63;;;3.67;;
19585;SDS011;9939;49.246;9.106;2023-12-28T13:38:41;7.90;;;3.60;;
19585;SDS011;9939;49.246;9.106;2023-12-28T13:41:08;9.90;;;4.60;;
19585;SDS011;9939;49.246;9.106;2023-12-28T13:43:36;6.77;;;3.73;;
19585;SDS011;9939;49.246;9.106;2023-12-28T13:46:03;9.03;;;4.53;;
19585;SDS011;9939;49.246;9.106;2023-12-28T13:48:30;7.13;;;3.90;;
19585;SDS011;9939;49.246;9.106;2023-12-28T13:50:58;7.77;;;4.30;;
19585;SDS011;9939;49.246;9.106;2023-12-28T13:53:25;7.23;;;3.80;;
19585;SDS011;9939;49.246;9.106;2023-12-28T13:55:52;8.53;;;3.90;;
19585;SDS011;9939;49.246;9.106;2023-12-28T13:58:19;7.20;;;4.00;;
19585;SDS011;9939;49.246;9.106;2023-12-28T14:00:46;6.87;;;4.00;;
19585;SDS011;9939;49.246;9.106;2023-12-28T14:03:13;7.77;;;4.07;;
19585;SDS011;9939;49.246;9.106;2023-12-28T14:05:40;9.07;;;4.23;;
19585;SDS011;9939;49.246;9.106;2023-12-28T14:08:09;7.63;;;3.90;;
19585;SDS011;9939;49.246;9.106;2023-12-28T14:10:36;6.87;;;3.90;;
19585;SDS011;9939;49.246;9.106;2023-12-28T14:13:05;6.73;;;3.83;;
19585;SDS011;9939;49.246;9.106;2023-12-28T14:15:32;9.33;;;4.37;;
19585;SDS011;9939;49.246;9.106;2023-12-28T14:17:59;8.63;;;4.00;;
19585;SDS011;9939;49.246;9.106;2023-12-28T14:20:26;9.40;;;4.50;;
19585;SDS011;9939;49.246;9.106;2023-12-28T14:22:54;7.73;;;4.70;;
19585;SDS011;9939;49.246;9.106;2023-12-28T14:25:22;9.67;;;4.77;;
19585;SDS011;9939;49.246;9.106;2023-12-28T14:27:50;9.27;;;5.13;;
19585;SDS011;9939;49.246;9.106;2023-12-28T14:30:18;7.07;;;4.40;;
19585;SDS011;9939;49.246;9.106;2023-12-28T14:32:46;9.87;;;4.20;;
19585;SDS011;9939;49.246;9.106;2023-12-28T14:35:14;7.70;;;4.40;;
19585;SDS011;9939;49.246;9.106;2023-12-28T14:37:44;10.87;;;4.53;;
19585;SDS011;9939;49.246;9.106;2023-12-28T14:40:11;6.77;;;3.87;;
19585;SDS011;9939;49.246;9.106;2023-12-28T14:42:38;8.20;;;4.27;;
19585;SDS011;9939;49.246;9.106;2023-12-28T14:45:06;6.37;;;3.57;;
19585;SDS011;9939;49.246;9.106;2023-12-28T14:47:33;7.83;;;4.33;;
19585;SDS011;9939;49.246;9.106;2023-12-28T14:50:00;8.07;;;4.73;;
19585;SDS011;9939;49.246;9.106;2023-12-28T14:52:28;8.63;;;4.50;;
19585;SDS011;9939;49.246;9.106;2023-12-28T14:54:55;8.27;;;4.67;;
19585;SDS011;9939;49.246;9.106;2023-12-28T14:57:23;8.23;;;4.30;;
19585;SDS011;9939;49.246;9.106;2023-12-28T14:59:50;7.77;;;4.87;;
19585;SDS011;9939;49.246;9.106;2023-12-28T15:02:17;7.37;;;4.80;;
19585;SDS011;9939;49.246;9.106;2023-12-28T15:04:45;8.17;;;4.37;;
19585;SDS011;9939;49.246;9.106;2023-12-28T15:07:12;10.63;;;5.90;;
19585;SDS011;9939;49.246;9.106;2023-12-28T15:09:39;8.97;;;4.97;;
19585;SDS011;9939;49.246;9.106;2023-12-28T15:12:06;10.30;;;5.13;;